Time;durP1;ratioP1;P1;durP2;ratioP2;P2;SDS_P1;SDS_P2;PMS_P1;PMS_P2;Temp;Humidity;BMP_temperature;BMP_pressure;BME280_temperature;BME280_humidity;BME280_pressure;Samples;Min_cycle;Max_cycle;Signal;HPM_P1;HPM_P2
2022/03/05 00:00:52;;;;;;;15.73;9.15;;;1.70;97.80;;;;;;5056587;28;20032;-80
2022/03/05 00:03:18;;;;;;;16.55;8.82;;;1.70;98.00;;;;;;5056383;28;20037;-80
2022/03/05 00:05:44;;;;;;;15.07;8.52;;;1.70;98.00;;;;;;5056352;28;20091;-80
2022/03/05 00:08:10;;;;;;;15.65;8.20;;;1.70;97.90;;;;;;5056726;28;20041;-80
2022/03/05 00:10:36;;;;;;;14.82;9.13;;;1.70;97.90;;;;;;5056919;28;20128;-80
2022/03/05 00:13:02;;;;;;;17.33;8.77;;;1.60;98.00;;;;;;5039821;28;20140;-80
2022/03/05 00:15:28;;;;;;;18.05;8.63;;;1.60;97.80;;;;;;5056686;28;20107;-79
2022/03/05 00:17:55;;;;;;;15.85;8.82;;;1.60;98.00;;;;;;5056545;28;20485;-80
2022/03/05 00:20:22;;;;;;;17.67;9.65;;;1.50;98.10;;;;;;5056659;28;20083;-80
2022/03/05 00:22:51;;;;;;;16.92;8.95;;;1.50;98.40;;;;;;5056401;28;20036;-80
2022/03/05 00:25:16;;;;;;;17.20;9.63;;;1.50;98.50;;;;;;5056395;28;20056;-80
2022/03/05 00:27:43;;;;;;;16.50;9.15;;;1.50;98.50;;;;;;5056517;28;20055;-80
2022/03/05 00:30:09;;;;;;;17.92;9.48;;;1.40;98.80;;;;;;5056613;28;20076;-79
2022/03/05 00:32:35;;;;;;;16.02;8.75;;;1.40;98.70;;;;;;5056371;28;20105;-79
2022/03/05 00:35:01;;;;;;;15.85;9.32;;;1.40;98.70;;;;;;5039501;28;20033;-79
2022/03/05 00:37:27;;;;;;;16.85;8.20;;;1.40;98.80;;;;;;5056585;28;20075;-80
2022/03/05 00:39:53;;;;;;;15.57;8.75;;;1.30;98.70;;;;;;5056483;28;20055;-80
2022/03/05 00:42:19;;;;;;;15.15;8.63;;;1.40;98.90;;;;;;5039775;28;20484;-80
2022/03/05 00:44:45;;;;;;;17.67;8.73;;;1.30;99.10;;;;;;5056059;28;20043;-80
2022/03/05 00:47:10;;;;;;;15.98;8.88;;;1.30;99.30;;;;;;5056361;28;20041;-80
2022/03/05 00:49:36;;;;;;;16.95;8.68;;;1.30;99.30;;;;;;5056398;28;20455;-80
2022/03/05 00:52:02;;;;;;;15.77;8.63;;;1.30;99.20;;;;;;5056223;28;20033;-80
2022/03/05 00:54:28;;;;;;;16.58;9.38;;;1.30;99.20;;;;;;5056089;28;20041;-80
2022/03/05 00:56:53;;;;;;;17.00;8.88;;;1.30;99.20;;;;;;5039833;28;20075;-80
2022/03/05 00:59:19;;;;;;;18.52;9.55;;;1.30;99.20;;;;;;5056416;28;20120;-80
2022/03/05 01:01:44;;;;;;;17.20;8.85;;;1.30;99.20;;;;;;5056095;28;20041;-80
2022/03/05 01:04:10;;;;;;;16.80;8.85;;;1.30;99.30;;;;;;5053398;28;20041;-80
2022/03/05 01:06:36;;;;;;;17.50;8.93;;;1.30;99.70;;;;;;5053015;28;20041;-80
2022/03/05 01:09:04;;;;;;;16.65;8.57;;;1.20;99.50;;;;;;5036292;28;20124;-80
2022/03/05 01:11:29;;;;;;;15.90;8.63;;;1.20;99.50;;;;;;5052935;28;20505;-80
2022/03/05 01:13:55;;;;;;;17.30;9.35;;;1.20;99.60;;;;;;5052749;28;20033;-80
2022/03/05 01:16:21;;;;;;;17.48;8.32;;;1.20;99.60;;;;;;5036495;28;20438;-80
2022/03/05 01:18:47;;;;;;;17.73;8.68;;;1.20;99.50;;;;;;5052630;28;20037;-80
2022/03/05 01:21:12;;;;;;;18.00;9.60;;;1.10;99.50;;;;;;5052825;28;20072;-80
2022/03/05 01:23:38;;;;;;;16.83;8.70;;;1.10;99.80;;;;;;5052758;28;20045;-80
2022/03/05 01:26:04;;;;;;;16.42;8.73;;;1.10;99.60;;;;;;5035884;28;20048;-80
2022/03/05 01:28:29;;;;;;;19.23;9.07;;;1.10;99.80;;;;;;5036268;28;20124;-80
2022/03/05 01:30:55;;;;;;;16.10;8.15;;;1.10;99.80;;;;;;5052516;28;20033;-80
2022/03/05 01:33:21;;;;;;;17.65;8.82;;;1.10;99.90;;;;;;5052797;28;20057;-80
2022/03/05 01:35:48;;;;;;;16.17;8.35;;;1.10;99.90;;;;;;5035738;28;20033;-80
2022/03/05 01:38:14;;;;;;;16.77;9.02;;;1.00;99.80;;;;;;5052206;28;20033;-80
2022/03/05 01:40:40;;;;;;;16.40;8.52;;;1.00;99.90;;;;;;5052378;28;20041;-80
2022/03/05 01:43:05;;;;;;;17.42;9.00;;;1.00;99.90;;;;;;5035798;28;20041;-80
2022/03/05 01:45:31;;;;;;;15.43;8.02;;;1.00;99.90;;;;;;5052016;28;20044;-80
2022/03/05 01:47:58;;;;;;;16.85;9.18;;;1.00;99.90;;;;;;5052394;28;20077;-80
2022/03/05 01:50:23;;;;;;;17.10;8.15;;;1.00;99.90;;;;;;5052405;28;20633;-80
2022/03/05 01:52:49;;;;;;;17.33;8.35;;;1.00;99.90;;;;;;5052095;28;20133;-80
2022/03/05 01:55:15;;;;;;;16.98;8.68;;;1.00;99.90;;;;;;5051977;28;20041;-80
2022/03/05 01:57:41;;;;;;;16.73;8.15;;;1.00;99.90;;;;;;5052406;28;20045;-80
2022/03/05 02:00:09;;;;;;;15.15;7.40;;;1.00;99.90;;;;;;5035487;28;20513;-79
2022/03/05 02:02:34;;;;;;;14.98;8.18;;;1.00;99.90;;;;;;5052184;28;20398;-80
2022/03/05 02:05:00;;;;;;;15.23;7.53;;;1.00;99.90;;;;;;5051808;28;20498;-79
2022/03/05 02:07:26;;;;;;;16.25;8.23;;;1.00;99.90;;;;;;5035293;28;20040;-79
2022/03/05 02:09:52;;;;;;;16.63;8.35;;;1.00;99.90;;;;;;5051800;28;20033;-79
2022/03/05 02:12:18;;;;;;;17.25;8.95;;;1.00;99.90;;;;;;5052804;28;20036;-79
2022/03/05 02:14:43;;;;;;;14.70;7.60;;;0.90;99.90;;;;;;5072320;28;20512;-80
2022/03/05 02:17:10;;;;;;;15.98;8.05;;;0.90;99.90;;;;;;5068355;28;20518;-80
2022/03/05 02:19:35;;;;;;;14.55;7.45;;;0.90;99.90;;;;;;5052546;28;20041;-79
2022/03/05 02:22:01;;;;;;;15.68;7.85;;;0.90;99.90;;;;;;5035449;28;20087;-79
2022/03/05 02:24:33;;;;;;;15.85;8.25;;;0.90;99.60;;;;;;5033841;28;20041;-80
2022/03/05 02:27:01;;;;;;;16.20;7.97;;;0.80;99.80;;;;;;5051409;28;20086;-80
2022/03/05 02:29:27;;;;;;;15.60;7.78;;;0.80;99.90;;;;;;5034480;28;20478;-80
2022/03/05 02:31:54;;;;;;;14.68;7.20;;;0.80;99.90;;;;;;5051209;28;20090;-80
2022/03/05 02:34:20;;;;;;;14.40;7.38;;;0.70;99.90;;;;;;5034503;28;20112;-80
2022/03/05 02:36:46;;;;;;;14.43;6.93;;;0.70;99.90;;;;;;5051668;28;20043;-80
2022/03/05 02:39:11;;;;;;;16.20;7.32;;;0.70;99.90;;;;;;5034811;28;20518;-80
2022/03/05 02:41:37;;;;;;;14.50;7.32;;;0.70;99.90;;;;;;5051321;28;20051;-80
2022/03/05 02:44:03;;;;;;;15.57;8.10;;;0.70;99.90;;;;;;5051276;28;20102;-80
2022/03/05 02:46:29;;;;;;;15.85;7.50;;;0.70;99.90;;;;;;5051263;28;20418;-80
2022/03/05 02:48:56;;;;;;;14.25;7.13;;;0.60;99.90;;;;;;5051178;28;20120;-80
2022/03/05 02:51:22;;;;;;;14.77;7.13;;;0.60;99.90;;;;;;5050930;28;20557;-80
2022/03/05 02:53:48;;;;;;;15.82;7.65;;;0.60;99.90;;;;;;5050806;28;20065;-80
2022/03/05 02:56:14;;;;;;;13.75;7.38;;;0.60;99.90;;;;;;5050646;28;20051;-80
2022/03/05 02:58:40;;;;;;;14.82;7.43;;;0.60;99.90;;;;;;5051003;28;20048;-80
2022/03/05 03:01:06;;;;;;;14.27;7.35;;;0.60;99.90;;;;;;5050745;28;20056;-80
2022/03/05 03:03:31;;;;;;;15.63;7.22;;;0.60;99.90;;;;;;5050778;28;20494;-80
2022/03/05 03:05:57;;;;;;;15.48;7.35;;;0.60;99.90;;;;;;5050394;28;20071;-80
2022/03/05 03:08:23;;;;;;;15.10;7.55;;;0.60;99.90;;;;;;5050971;28;20124;-80
2022/03/05 03:10:48;;;;;;;14.95;7.32;;;0.60;99.90;;;;;;5050688;28;20044;-80
2022/03/05 03:13:14;;;;;;;16.38;6.90;;;0.60;99.90;;;;;;5034019;28;20044;-80
2022/03/05 03:15:40;;;;;;;16.88;8.23;;;0.60;99.90;;;;;;5050365;28;20033;-80
2022/03/05 03:18:05;;;;;;;16.73;7.32;;;0.60;99.90;;;;;;5050822;28;20098;-80
2022/03/05 03:20:31;;;;;;;14.90;7.50;;;0.60;99.90;;;;;;5050619;28;20068;-80
2022/03/05 03:22:57;;;;;;;14.65;6.82;;;0.60;99.90;;;;;;5050422;28;20045;-80
2022/03/05 03:25:23;;;;;;;15.57;7.32;;;0.60;99.90;;;;;;5033599;28;20060;-80
2022/03/05 03:27:49;;;;;;;14.50;7.22;;;0.50;99.90;;;;;;5049810;28;20045;-80
2022/03/05 03:30:16;;;;;;;14.77;6.68;;;0.50;99.90;;;;;;5033889;28;20048;-80
2022/03/05 03:32:43;;;;;;;15.70;7.50;;;0.50;99.90;;;;;;5050307;28;20519;-80
2022/03/05 03:35:11;;;;;;;17.38;7.05;;;0.50;99.90;;;;;;5050024;28;20090;-80
2022/03/05 03:37:37;;;;;;;15.30;7.32;;;0.50;99.90;;;;;;5049357;28;20726;-80
2022/03/05 03:40:05;;;;;;;15.05;6.82;;;0.50;99.90;;;;;;5050142;28;20123;-80
2022/03/05 03:42:31;;;;;;;15.43;7.22;;;0.50;99.90;;;;;;5050438;28;20510;-80
2022/03/05 03:44:57;;;;;;;13.27;6.30;;;0.50;99.90;;;;;;5049783;28;20191;-80
2022/03/05 03:47:23;;;;;;;16.38;8.00;;;0.50;99.90;;;;;;5049688;28;20075;-80
2022/03/05 03:49:49;;;;;;;19.45;8.27;;;0.50;99.90;;;;;;5049777;28;20129;-80
2022/03/05 03:52:15;;;;;;;13.85;6.72;;;0.50;99.90;;;;;;5049705;28;20040;-80
2022/03/05 03:54:42;;;;;;;17.13;7.40;;;0.50;99.90;;;;;;5049992;28;20041;-80
2022/03/05 03:57:08;;;;;;;14.07;6.35;;;0.50;99.90;;;;;;5033602;28;20099;-80
2022/03/05 03:59:34;;;;;;;14.65;7.28;;;0.40;99.90;;;;;;5049886;28;20044;-80
2022/03/05 04:02:02;;;;;;;15.10;7.00;;;0.40;99.90;;;;;;5049804;28;20044;-80
2022/03/05 04:04:28;;;;;;;16.75;7.53;;;0.40;99.90;;;;;;5050172;28;20414;-79
2022/03/05 04:09:38;;;;;;;13.85;6.53;;;0.40;99.90;;;;;;5050283;28;20033;-80
2022/03/05 04:12:04;;;;;;;18.17;7.05;;;0.40;99.90;;;;;;5049634;28;20516;-80
2022/03/05 04:14:29;;;;;;;16.45;7.28;;;0.40;99.90;;;;;;5049573;28;20127;-80
2022/03/05 04:16:55;;;;;;;16.17;7.82;;;0.40;99.90;;;;;;5049841;28;20048;-80
2022/03/05 04:19:20;;;;;;;17.55;7.63;;;0.40;99.90;;;;;;5049871;28;20037;-80
2022/03/05 04:21:46;;;;;;;15.63;7.65;;;0.40;99.90;;;;;;5049902;28;20048;-80
2022/03/05 04:24:12;;;;;;;15.15;7.00;;;0.30;99.90;;;;;;5049719;28;20048;-79
2022/03/05 04:26:38;;;;;;;16.88;7.97;;;0.30;99.90;;;;;;5049834;28;20560;-80
2022/03/05 04:29:04;;;;;;;16.10;6.85;;;0.30;99.90;;;;;;5049871;28;20067;-80
2022/03/05 04:31:30;;;;;;;15.82;7.72;;;0.30;99.90;;;;;;5032936;28;20063;-80
2022/03/05 04:33:56;;;;;;;16.48;8.20;;;0.30;99.90;;;;;;5049827;28;20090;-80
2022/03/05 04:36:22;;;;;;;15.27;7.22;;;0.30;99.90;;;;;;5049268;28;20045;-80
2022/03/05 04:38:48;;;;;;;15.38;6.10;;;0.30;99.90;;;;;;5051087;28;20477;-80
2022/03/05 04:41:14;;;;;;;15.27;7.22;;;0.30;99.90;;;;;;5053784;28;20056;-80
2022/03/05 04:43:39;;;;;;;17.00;7.35;;;0.30;99.90;;;;;;5036748;28;20409;-80
2022/03/05 04:46:05;;;;;;;14.35;6.65;;;0.30;99.90;;;;;;5036407;28;20041;-80
2022/03/05 04:48:30;;;;;;;15.98;7.13;;;0.30;99.90;;;;;;5053214;28;20118;-80
2022/03/05 04:50:56;;;;;;;15.57;7.65;;;0.30;99.90;;;;;;5053265;28;20090;-80
2022/03/05 04:53:22;;;;;;;15.98;6.97;;;0.30;99.90;;;;;;5053323;28;20460;-80
2022/03/05 04:55:48;;;;;;;14.73;7.18;;;0.30;99.90;;;;;;5053011;28;20033;-80
2022/03/05 04:58:14;;;;;;;15.40;7.03;;;0.30;99.90;;;;;;5053372;28;20102;-80
2022/03/05 05:00:40;;;;;;;15.43;6.90;;;0.30;99.90;;;;;;5053225;28;20041;-80
2022/03/05 05:03:06;;;;;;;15.52;7.32;;;0.30;99.90;;;;;;5053014;28;20095;-80
2022/03/05 05:05:32;;;;;;;15.98;6.88;;;0.30;99.90;;;;;;5035991;28;20532;-80
2022/03/05 05:07:57;;;;;;;15.50;7.80;;;0.30;99.90;;;;;;5052529;28;20049;-80
2022/03/05 05:10:23;;;;;;;14.73;6.82;;;0.30;99.90;;;;;;5052930;28;20041;-80
2022/03/05 05:12:48;;;;;;;15.73;7.57;;;0.30;99.90;;;;;;5052776;28;20083;-80
2022/03/05 05:15:14;;;;;;;16.10;7.63;;;0.20;99.90;;;;;;5052754;28;20049;-80
2022/03/05 05:17:40;;;;;;;17.67;7.68;;;0.30;99.90;;;;;;5052614;28;20470;-79
2022/03/05 05:20:06;;;;;;;16.48;7.65;;;0.30;99.90;;;;;;5052740;28;20041;-80
2022/03/05 05:22:32;;;;;;;15.25;6.75;;;0.20;99.90;;;;;;5035820;28;20064;-80
2022/03/05 05:24:59;;;;;;;15.20;6.65;;;0.20;99.90;;;;;;5052233;28;20092;-80
2022/03/05 05:27:25;;;;;;;17.10;7.68;;;0.20;99.90;;;;;;5036111;28;20037;-80
2022/03/05 05:29:50;;;;;;;16.73;7.05;;;0.20;99.90;;;;;;5052288;28;20059;-80
2022/03/05 05:32:17;;;;;;;17.20;7.47;;;0.20;99.90;;;;;;5052566;28;20083;-80
2022/03/05 05:34:43;;;;;;;15.65;7.22;;;0.10;99.90;;;;;;5052642;28;20053;-79
2022/03/05 05:37:09;;;;;;;17.30;6.97;;;0.10;99.90;;;;;;5052871;28;20502;-80
2022/03/05 05:39:34;;;;;;;16.33;7.40;;;0.10;99.90;;;;;;5052527;28;20127;-80
2022/03/05 05:42:00;;;;;;;17.77;7.22;;;0.10;99.90;;;;;;5052556;28;20098;-80
2022/03/05 05:44:26;;;;;;;16.85;7.78;;;0.10;99.90;;;;;;5052323;28;20167;-80
2022/03/05 05:46:52;;;;;;;16.23;7.07;;;0.10;99.90;;;;;;5052149;28;20037;-80
2022/03/05 05:49:17;;;;;;;13.02;6.32;;;0.10;99.90;;;;;;5052123;28;20040;-80
2022/03/05 05:51:43;;;;;;;16.60;7.22;;;0.10;99.90;;;;;;5051538;28;20033;-80
2022/03/05 05:54:09;;;;;;;15.55;6.97;;;0.10;99.90;;;;;;5052482;28;20486;-80
2022/03/05 05:56:35;;;;;;;16.70;8.00;;;0.10;99.90;;;;;;5035644;28;20132;-80
2022/03/05 05:59:01;;;;;;;16.40;6.95;;;0.10;99.90;;;;;;5052166;28;20041;-80
2022/03/05 06:01:27;;;;;;;15.90;6.95;;;0.10;99.90;;;;;;5051780;28;20037;-80
2022/03/05 06:03:53;;;;;;;15.77;7.25;;;0.10;99.90;;;;;;5051697;28;20049;-80
2022/03/05 06:06:20;;;;;;;18.42;7.07;;;0.10;99.90;;;;;;5051669;28;20080;-80
2022/03/05 06:08:46;;;;;;;18.58;7.28;;;0.00;99.90;;;;;;5051751;28;20047;-80
2022/03/05 06:11:12;;;;;;;15.25;7.07;;;0.10;99.90;;;;;;5051634;28;20040;-80
2022/03/05 06:13:37;;;;;;;14.80;7.15;;;0.10;99.90;;;;;;5051647;28;20072;-80
2022/03/05 06:16:04;;;;;;;14.68;6.97;;;0.10;99.90;;;;;;5051488;28;20072;-80
2022/03/05 06:18:29;;;;;;;17.17;7.57;;;0.10;99.90;;;;;;5052153;28;20401;-80
2022/03/05 06:20:55;;;;;;;16.00;8.05;;;0.10;99.90;;;;;;5051414;28;20123;-80
2022/03/05 06:23:21;;;;;;;14.48;6.35;;;0.10;99.90;;;;;;5035008;28;20037;-80
2022/03/05 06:25:46;;;;;;;16.30;6.85;;;0.10;99.90;;;;;;5051484;28;20032;-79
2022/03/05 06:28:12;;;;;;;14.02;6.65;;;0.10;99.90;;;;;;5051562;28;20049;-80
2022/03/05 06:30:38;;;;;;;16.27;7.07;;;0.10;99.90;;;;;;5051006;28;20032;-80
2022/03/05 06:33:04;;;;;;;17.20;7.65;;;0.10;99.90;;;;;;5034700;28;20445;-80
2022/03/05 06:35:30;;;;;;;13.85;6.45;;;0.10;99.90;;;;;;5050933;28;20072;-80
2022/03/05 06:37:55;;;;;;;14.27;6.82;;;0.10;99.90;;;;;;5051269;28;20067;-80
2022/03/05 06:40:21;;;;;;;16.38;7.65;;;0.10;99.90;;;;;;5034397;28;20124;-80
2022/03/05 06:42:47;;;;;;;17.35;6.95;;;0.20;99.90;;;;;;5034653;28;20037;-80
2022/03/05 06:45:13;;;;;;;15.43;6.93;;;0.20;99.90;;;;;;5051023;28;20123;-80
2022/03/05 06:47:39;;;;;;;16.05;6.60;;;0.20;99.90;;;;;;5034290;28;20086;-80
2022/03/05 06:50:07;;;;;;;14.13;6.15;;;0.20;99.90;;;;;;5051565;28;20402;-80
2022/03/05 06:52:33;;;;;;;15.73;6.60;;;0.20;99.90;;;;;;5051256;28;20510;-80
2022/03/05 06:54:59;;;;;;;15.07;6.30;;;0.30;99.90;;;;;;5048252;28;20070;-80
2022/03/05 06:57:26;;;;;;;14.18;6.38;;;0.30;99.90;;;;;;5049819;28;20098;-81
2022/03/05 06:59:51;;;;;;;13.93;6.20;;;0.30;99.90;;;;;;5032922;28;20041;-80
2022/03/05 07:02:17;;;;;;;14.57;6.65;;;0.30;99.90;;;;;;5048839;28;20095;-80
2022/03/05 07:04:43;;;;;;;15.75;6.43;;;0.40;99.90;;;;;;5048977;28;20059;-79
2022/03/05 07:07:08;;;;;;;15.45;6.63;;;0.40;99.90;;;;;;5049485;28;20040;-80
2022/03/05 07:09:34;;;;;;;14.80;7.15;;;0.40;99.90;;;;;;5050096;28;20052;-80
2022/03/05 07:12:00;;;;;;;13.65;7.00;;;0.50;99.90;;;;;;5049552;28;20040;-80
2022/03/05 07:14:26;;;;;;;15.13;7.85;;;0.50;99.90;;;;;;5049177;28;20033;-80
2022/03/05 07:16:52;;;;;;;15.65;6.85;;;0.50;99.90;;;;;;5050281;28;20455;-80
2022/03/05 07:19:18;;;;;;;17.20;8.07;;;0.60;99.90;;;;;;5052448;28;20051;-79
2022/03/05 07:21:43;;;;;;;16.10;7.63;;;0.60;99.90;;;;;;5050281;28;20037;-81
2022/03/05 07:24:09;;;;;;;15.77;7.47;;;0.70;99.90;;;;;;5050485;28;20051;-80
2022/03/05 07:26:35;;;;;;;16.17;7.38;;;0.70;99.90;;;;;;5049733;28;20045;-79
2022/03/05 07:29:01;;;;;;;16.80;7.20;;;0.80;99.90;;;;;;5049995;28;20383;-81
2022/03/05 07:31:27;;;;;;;15.65;7.43;;;0.90;99.90;;;;;;5049724;28;20493;-80
2022/03/05 07:33:52;;;;;;;19.13;8.00;;;0.90;99.90;;;;;;5049307;28;20128;-81
2022/03/05 07:36:19;;;;;;;15.82;8.45;;;1.00;99.90;;;;;;5049582;28;20152;-80
2022/03/05 07:38:45;;;;;;;16.00;7.75;;;1.10;99.90;;;;;;5049909;28;20037;-81
2022/03/05 07:41:12;;;;;;;15.95;7.93;;;1.20;99.90;;;;;;5049872;28;20405;-80
2022/03/05 07:43:38;;;;;;;16.77;8.32;;;1.20;99.90;;;;;;5049292;28;20064;-80
2022/03/05 07:46:04;;;;;;;18.42;7.88;;;1.30;99.90;;;;;;5033013;28;20033;-81
2022/03/05 07:48:30;;;;;;;15.77;8.00;;;1.40;99.90;;;;;;5033181;28;20505;-81
2022/03/05 07:50:59;;;;;;;18.90;8.13;;;1.40;99.90;;;;;;5049618;28;20041;-81
2022/03/05 07:53:26;;;;;;;16.08;8.07;;;1.50;99.90;;;;;;5049256;28;20037;-80
2022/03/05 07:55:52;;;;;;;19.42;8.43;;;1.60;99.90;;;;;;5048712;28;20049;-81
2022/03/05 07:58:18;;;;;;;16.80;8.65;;;1.60;99.90;;;;;;5050234;28;20037;-81
2022/03/05 08:00:43;;;;;;;16.15;8.52;;;1.70;99.90;;;;;;5049866;28;20465;-81
2022/03/05 08:03:09;;;;;;;19.10;9.05;;;1.70;99.90;;;;;;5049790;28;20131;-81
2022/03/05 08:05:35;;;;;;;18.00;9.30;;;1.80;99.90;;;;;;5049198;28;20033;-81
2022/03/05 08:08:00;;;;;;;17.02;9.02;;;1.90;99.90;;;;;;5048941;28;20059;-81
2022/03/05 08:10:26;;;;;;;17.73;9.25;;;2.00;99.90;;;;;;5048259;28;20037;-81
2022/03/05 08:12:51;;;;;;;16.17;8.48;;;2.00;99.90;;;;;;5049266;28;20048;-81
2022/03/05 08:15:17;;;;;;;19.55;9.23;;;2.10;99.90;;;;;;5053717;28;20640;-81
2022/03/05 08:18:00;;;;;;;18.25;9.70;;;2.20;99.90;;;;;;5037741;28;20086;-81
2022/03/05 08:20:29;;;;;;;16.38;8.75;;;2.20;99.90;;;;;;5052699;28;20032;-81
2022/03/05 08:22:55;;;;;;;18.85;8.95;;;2.30;99.90;;;;;;5036623;28;20037;-81
2022/03/05 08:25:21;;;;;;;18.45;10.02;;;2.40;99.90;;;;;;5052922;28;20052;-81
2022/03/05 08:27:48;;;;;;;19.75;9.38;;;2.40;99.90;;;;;;5052091;28;20041;-81
2022/03/05 08:30:15;;;;;;;18.42;9.52;;;2.50;99.90;;;;;;5052851;28;20037;-81
2022/03/05 08:32:41;;;;;;;19.27;9.93;;;2.60;99.90;;;;;;5052891;28;20048;-81
2022/03/05 08:35:08;;;;;;;20.52;10.43;;;2.70;99.90;;;;;;5052629;28;20033;-81
2022/03/05 08:37:34;;;;;;;20.33;10.15;;;2.80;99.90;;;;;;5053169;28;20124;-81
2022/03/05 08:40:00;;;;;;;20.13;11.38;;;2.80;99.90;;;;;;5053306;28;20044;-81
2022/03/05 08:42:26;;;;;;;19.92;10.98;;;2.90;99.90;;;;;;5036596;28;20036;-81
2022/03/05 08:44:52;;;;;;;20.90;10.65;;;3.00;99.90;;;;;;5053256;28;20041;-81
2022/03/05 08:47:17;;;;;;;22.95;11.35;;;3.10;99.90;;;;;;5036600;28;20490;-81
2022/03/05 08:49:43;;;;;;;19.33;11.23;;;3.20;99.90;;;;;;5053302;28;20502;-81
2022/03/05 08:52:09;;;;;;;20.63;10.98;;;3.30;99.90;;;;;;5052067;28;20032;-81
2022/03/05 08:54:35;;;;;;;21.33;9.73;;;3.30;99.90;;;;;;5051942;28;20516;-81
2022/03/05 08:57:02;;;;;;;21.83;11.05;;;3.40;99.90;;;;;;5052866;28;20043;-81
2022/03/05 08:59:28;;;;;;;18.42;10.25;;;3.50;99.90;;;;;;5051824;28;20655;-81
2022/03/05 09:01:54;;;;;;;21.98;11.35;;;3.60;99.90;;;;;;5052566;28;20120;-81
2022/03/05 09:04:20;;;;;;;22.83;12.40;;;3.70;99.90;;;;;;5052537;28;20044;-81
2022/03/05 09:06:46;;;;;;;22.67;12.05;;;3.80;99.90;;;;;;5052122;28;20057;-81
2022/03/05 09:09:11;;;;;;;21.17;10.60;;;3.90;99.90;;;;;;5052358;28;20037;-81
2022/03/05 09:11:38;;;;;;;23.20;11.73;;;4.00;99.60;;;;;;5051190;28;20120;-81
2022/03/05 09:14:04;;;;;;;25.45;12.45;;;4.10;99.50;;;;;;5035640;28;20033;-81
2022/03/05 09:16:31;;;;;;;23.27;11.93;;;4.20;99.10;;;;;;5052478;28;20509;-81
2022/03/05 09:18:57;;;;;;;22.20;12.23;;;4.20;98.70;;;;;;5053825;28;20052;-81
2022/03/05 09:21:22;;;;;;;22.52;11.82;;;4.30;98.50;;;;;;5052725;28;20040;-81
2022/03/05 09:23:48;;;;;;;22.83;12.07;;;4.40;98.20;;;;;;5052594;28;20101;-81
2022/03/05 09:26:17;;;;;;;22.80;13.05;;;4.40;98.20;;;;;;5051124;28;20130;-81
2022/03/05 09:28:44;;;;;;;24.45;12.55;;;4.50;98.00;;;;;;5052523;28;20041;-81
2022/03/05 09:31:10;;;;;;;23.55;12.20;;;4.60;97.90;;;;;;5052197;28;20037;-81
2022/03/05 09:33:36;;;;;;;22.75;11.93;;;4.70;97.50;;;;;;5051992;28;20482;-81
2022/03/05 09:36:02;;;;;;;24.10;12.05;;;4.80;97.30;;;;;;5051642;28;20029;-81
2022/03/05 09:38:27;;;;;;;22.45;12.00;;;4.90;97.60;;;;;;5051862;28;20098;-81
2022/03/05 09:40:53;;;;;;;25.05;12.95;;;4.90;97.00;;;;;;5052211;28;20041;-81
2022/03/05 09:43:20;;;;;;;23.55;13.20;;;5.00;96.80;;;;;;5035946;28;20049;-81
2022/03/05 09:45:46;;;;;;;21.75;13.00;;;5.20;97.10;;;;;;5051958;28;20426;-81
2022/03/05 09:48:16;;;;;;;22.23;13.20;;;5.30;96.80;;;;;;5052225;28;20045;-81
2022/03/05 09:50:42;;;;;;;21.52;12.18;;;5.40;96.70;;;;;;5051414;28;20033;-81
2022/03/05 09:53:08;;;;;;;24.90;12.73;;;5.50;96.60;;;;;;5051307;28;20094;-81
2022/03/05 09:55:33;;;;;;;21.70;13.30;;;5.60;96.40;;;;;;5049292;28;20039;-81
2022/03/05 09:57:59;;;;;;;22.85;13.20;;;5.70;95.80;;;;;;5050679;28;20083;-81
2022/03/05 10:00:26;;;;;;;25.13;13.55;;;5.80;95.70;;;;;;5051399;28;20418;-81
2022/03/05 10:02:52;;;;;;;25.02;13.75;;;5.90;95.60;;;;;;5051566;28;20048;-81
2022/03/05 10:05:24;;;;;;;26.30;13.85;;;6.00;95.10;;;;;;5050959;28;20037;-81
2022/03/05 10:08:00;;;;;;;25.27;12.43;;;6.10;94.90;;;;;;5051766;28;20045;-81
2022/03/05 10:10:26;;;;;;;24.42;13.27;;;6.20;94.30;;;;;;5051665;28;20124;-81
2022/03/05 10:12:52;;;;;;;24.95;14.50;;;6.30;94.40;;;;;;5050977;28;20041;-81
2022/03/05 10:15:18;;;;;;;24.27;14.68;;;6.40;93.60;;;;;;5034517;28;20047;-81
2022/03/05 10:18:00;;;;;;;23.40;12.90;;;6.40;93.60;;;;;;5051537;28;20041;-81
2022/03/05 10:20:29;;;;;;;23.67;12.77;;;6.50;93.50;;;;;;5051587;28;20123;-81
2022/03/05 10:23:05;;;;;;;25.27;13.52;;;6.60;93.20;;;;;;5051540;28;20290;-81
2022/03/05 10:25:33;;;;;;;24.75;13.68;;;6.70;93.00;;;;;;5051529;28;20040;-81
2022/03/05 10:28:10;;;;;;;24.00;13.93;;;6.90;93.00;;;;;;5035050;28;20402;-81
2022/03/05 10:30:44;;;;;;;21.55;13.55;;;7.00;92.60;;;;;;5051207;28;20049;-80
2022/03/05 10:33:24;;;;;;;22.80;14.45;;;7.10;92.00;;;;;;5050567;28;20094;-81
2022/03/05 10:35:50;;;;;;;22.48;13.65;;;7.20;91.60;;;;;;5051949;28;20048;-81
2022/03/05 10:38:16;;;;;;;24.77;14.27;;;7.20;91.60;;;;;;5034389;28;20032;-81
2022/03/05 10:40:42;;;;;;;25.85;14.75;;;7.30;91.20;;;;;;5051069;28;20103;-81
2022/03/05 10:43:08;;;;;;;23.27;14.15;;;7.50;91.20;;;;;;5050982;28;20090;-81
2022/03/05 10:45:54;;;;;;;25.38;14.52;;;7.60;90.80;;;;;;5051078;28;20510;-81
2022/03/05 10:48:22;;;;;;;24.40;14.20;;;7.70;90.50;;;;;;5050897;28;20231;-81
2022/03/05 10:50:47;;;;;;;25.25;14.90;;;7.80;90.30;;;;;;5050886;28;20048;-81
2022/03/05 10:53:13;;;;;;;25.13;15.05;;;8.00;90.10;;;;;;5049889;28;20037;-81
2022/03/05 10:55:38;;;;;;;25.90;15.00;;;8.10;89.90;;;;;;5049504;28;20044;-81
2022/03/05 10:58:13;;;;;;;22.75;13.85;;;8.20;88.90;;;;;;5049085;28;20041;-81
2022/03/05 11:00:40;;;;;;;22.70;14.13;;;8.30;88.20;;;;;;5051010;28;20175;-81
2022/03/05 11:03:06;;;;;;;23.95;14.80;;;8.40;88.00;;;;;;5034246;28;20048;-81
2022/03/05 11:05:32;;;;;;;26.48;14.93;;;8.50;86.60;;;;;;5049346;28;20075;-81
2022/03/05 11:07:59;;;;;;;25.77;15.35;;;8.70;86.10;;;;;;5050927;28;20037;-81
2022/03/05 11:10:29;;;;;;;24.73;15.88;;;8.80;84.10;;;;;;5050985;28;20187;-81
2022/03/05 11:13:00;;;;;;;25.25;15.35;;;8.90;83.00;;;;;;5050925;28;20056;-81
2022/03/05 11:15:30;;;;;;;22.50;14.65;;;9.00;83.10;;;;;;5033858;28;20479;-81
2022/03/05 11:17:58;;;;;;;25.70;15.57;;;9.20;82.00;;;;;;5034113;28;20040;-81
2022/03/05 11:20:24;;;;;;;23.13;15.38;;;9.20;81.20;;;;;;5050385;28;20494;-81
2022/03/05 11:22:50;;;;;;;21.75;15.00;;;9.30;80.50;;;;;;5050550;28;20430;-81
2022/03/05 11:25:22;;;;;;;21.05;14.02;;;9.40;81.10;;;;;;5050628;28;20471;-81
2022/03/05 11:27:59;;;;;;;23.17;15.23;;;9.50;80.70;;;;;;5050456;28;20055;-81
2022/03/05 11:30:26;;;;;;;23.05;15.40;;;9.60;79.70;;;;;;5050503;28;20036;-81
2022/03/05 11:32:53;;;;;;;24.42;15.52;;;9.80;78.90;;;;;;5033637;28;20371;-81
2022/03/05 11:35:30;;;;;;;24.50;15.63;;;9.90;77.90;;;;;;5033897;28;20394;-81
2022/03/05 11:37:56;;;;;;;23.77;15.38;;;10.00;77.00;;;;;;5050679;28;20045;-81
2022/03/05 11:40:37;;;;;;;24.80;15.73;;;10.10;76.50;;;;;;5050126;28;20111;-81
2022/03/05 11:43:18;;;;;;;25.00;17.05;;;10.30;75.70;;;;;;5033649;28;20083;-81
2022/03/05 11:46:03;;;;;;;23.55;15.60;;;10.40;74.30;;;;;;5050245;28;20052;-81
2022/03/05 11:48:40;;;;;;;26.38;17.42;;;10.60;73.90;;;;;;5049626;28;20041;-82
2022/03/05 11:51:16;;;;;;;25.73;16.20;;;10.70;73.80;;;;;;5050535;28;20071;-81
2022/03/05 11:53:42;;;;;;;26.95;16.90;;;10.80;71.90;;;;;;5033667;28;20452;-81
2022/03/05 11:56:22;;;;;;;25.23;17.35;;;10.90;72.10;;;;;;5049844;28;20041;-82
2022/03/05 11:58:48;;;;;;;24.17;16.33;;;11.00;70.70;;;;;;5033961;28;20040;-81
2022/03/05 12:01:38;;;;;;;24.38;17.15;;;11.20;71.20;;;;;;5033867;28;20460;-82
2022/03/05 12:04:22;;;;;;;23.80;16.63;;;11.30;70.00;;;;;;5050018;28;20037;-82
2022/03/05 12:07:10;;;;;;;23.52;16.23;;;11.30;69.00;;;;;;5049681;28;20151;-82
2022/03/05 12:09:45;;;;;;;25.60;17.00;;;11.50;68.90;;;;;;5049607;28;20139;-82
2022/03/05 12:12:18;;;;;;;26.50;18.75;;;11.80;67.80;;;;;;5050137;28;20060;-82
2022/03/05 12:14:56;;;;;;;24.65;17.67;;;11.90;67.20;;;;;;5050311;28;20063;-82
2022/03/05 12:17:25;;;;;;;25.35;17.90;;;12.20;66.40;;;;;;5050012;28;20045;-82
2022/03/05 12:19:53;;;;;;;23.45;17.08;;;12.30;66.20;;;;;;5050105;28;20045;-82
2022/03/05 12:22:19;;;;;;;21.60;16.40;;;12.40;65.60;;;;;;5050062;28;20076;-82
2022/03/05 12:24:45;;;;;;;23.48;17.45;;;12.50;64.70;;;;;;5049973;28;20532;-82
2022/03/05 12:27:15;;;;;;;23.35;17.05;;;12.70;64.00;;;;;;5049343;28;20060;-82
2022/03/05 12:29:52;;;;;;;24.70;18.50;;;13.00;64.40;;;;;;5050189;28;20045;-82
2022/03/05 12:32:18;;;;;;;23.92;17.20;;;13.20;63.80;;;;;;5033256;28;20536;-82
2022/03/05 12:34:44;;;;;;;27.75;19.20;;;13.30;61.80;;;;;;5033612;28;20086;-82
2022/03/05 12:37:10;;;;;;;24.77;18.67;;;13.50;60.90;;;;;;5057553;28;20456;-81
2022/03/05 12:39:43;;;;;;;24.35;18.08;;;13.60;60.90;;;;;;5051485;28;20033;-81
2022/03/05 12:42:10;;;;;;;26.50;19.27;;;13.80;59.90;;;;;;5035849;28;20032;-81
2022/03/05 12:44:40;;;;;;;24.10;18.95;;;14.10;60.10;;;;;;5051032;28;20383;-81